sensor_id;sensor_type;location;lat;lon;timestamp;P1;durP1;ratioP1;P2;durP2;ratioP2
10957;SDS011;5531;42.570;23.676;2023-02-28T00:01:46;24.33;;;17.67;;
10957;SDS011;5531;42.570;23.676;2023-02-28T00:04:15;23.65;;;17.25;;
10957;SDS011;5531;42.570;23.676;2023-02-28T00:06:45;26.42;;;18.92;;
10957;SDS011;5531;42.570;23.676;2023-02-28T00:09:14;27.05;;;18.95;;
10957;SDS011;5531;42.570;23.676;2023-02-28T00:11:43;28.98;;;20.02;;
10957;SDS011;5531;42.570;23.676;2023-02-28T00:14:12;29.17;;;19.63;;
10957;SDS011;5531;42.570;23.676;2023-02-28T00:16:43;28.65;;;20.77;;
10957;SDS011;5531;42.570;23.676;2023-02-28T00:19:12;26.55;;;19.50;;
10957;SDS011;5531;42.570;23.676;2023-02-28T00:21:41;28.92;;;20.20;;
10957;SDS011;5531;42.570;23.676;2023-02-28T00:24:10;27.80;;;18.60;;
10957;SDS011;5531;42.570;23.676;2023-02-28T00:26:39;25.60;;;18.67;;
10957;SDS011;5531;42.570;23.676;2023-02-28T00:29:08;25.98;;;17.98;;
10957;SDS011;5531;42.570;23.676;2023-02-28T00:31:38;24.52;;;18.02;;
10957;SDS011;5531;42.570;23.676;2023-02-28T00:34:10;25.38;;;17.70;;
10957;SDS011;5531;42.570;23.676;2023-02-28T00:36:39;21.75;;;16.02;;
10957;SDS011;5531;42.570;23.676;2023-02-28T00:39:11;21.13;;;16.13;;
10957;SDS011;5531;42.570;23.676;2023-02-28T00:41:41;23.50;;;16.92;;
10957;SDS011;5531;42.570;23.676;2023-02-28T00:44:10;21.85;;;17.00;;
10957;SDS011;5531;42.570;23.676;2023-02-28T00:46:39;22.27;;;17.17;;
10957;SDS011;5531;42.570;23.676;2023-02-28T00:49:10;22.30;;;16.63;;
10957;SDS011;5531;42.570;23.676;2023-02-28T00:51:39;22.25;;;15.77;;
10957;SDS011;5531;42.570;23.676;2023-02-28T00:54:08;21.95;;;16.00;;
10957;SDS011;5531;42.570;23.676;2023-02-28T00:56:37;23.58;;;16.90;;
10957;SDS011;5531;42.570;23.676;2023-02-28T00:59:06;22.88;;;16.73;;
10957;SDS011;5531;42.570;23.676;2023-02-28T01:01:36;22.27;;;16.02;;
10957;SDS011;5531;42.570;23.676;2023-02-28T01:04:05;23.38;;;16.30;;
10957;SDS011;5531;42.570;23.676;2023-02-28T01:06:37;20.95;;;15.20;;
10957;SDS011;5531;42.570;23.676;2023-02-28T01:09:06;26.02;;;16.95;;
10957;SDS011;5531;42.570;23.676;2023-02-28T01:11:36;21.33;;;15.98;;
10957;SDS011;5531;42.570;23.676;2023-02-28T01:14:06;19.48;;;15.13;;
10957;SDS011;5531;42.570;23.676;2023-02-28T01:16:36;19.92;;;14.27;;
10957;SDS011;5531;42.570;23.676;2023-02-28T01:19:05;19.48;;;15.13;;
10957;SDS011;5531;42.570;23.676;2023-02-28T01:21:37;18.48;;;13.88;;
10957;SDS011;5531;42.570;23.676;2023-02-28T01:24:07;18.02;;;13.55;;
10957;SDS011;5531;42.570;23.676;2023-02-28T01:26:36;17.83;;;13.32;;
10957;SDS011;5531;42.570;23.676;2023-02-28T01:29:05;18.00;;;12.50;;
10957;SDS011;5531;42.570;23.676;2023-02-28T01:31:34;17.98;;;13.45;;
10957;SDS011;5531;42.570;23.676;2023-02-28T01:34:03;19.25;;;14.57;;
10957;SDS011;5531;42.570;23.676;2023-02-28T01:36:32;20.17;;;14.82;;
10957;SDS011;5531;42.570;23.676;2023-02-28T01:39:04;20.08;;;14.90;;
10957;SDS011;5531;42.570;23.676;2023-02-28T01:41:34;19.67;;;13.23;;
10957;SDS011;5531;42.570;23.676;2023-02-28T01:44:04;19.00;;;13.48;;
10957;SDS011;5531;42.570;23.676;2023-02-28T01:46:35;21.75;;;13.60;;
10957;SDS011;5531;42.570;23.676;2023-02-28T01:49:05;21.65;;;14.20;;
10957;SDS011;5531;42.570;23.676;2023-02-28T01:51:40;19.95;;;13.40;;
10957;SDS011;5531;42.570;23.676;2023-02-28T01:54:20;28.63;;;19.58;;
10957;SDS011;5531;42.570;23.676;2023-02-28T01:56:53;33.08;;;20.73;;
10957;SDS011;5531;42.570;23.676;2023-02-28T01:59:25;30.85;;;20.95;;
10957;SDS011;5531;42.570;23.676;2023-02-28T02:01:58;28.38;;;18.85;;
10957;SDS011;5531;42.570;23.676;2023-02-28T02:04:31;27.33;;;18.92;;
10957;SDS011;5531;42.570;23.676;2023-02-28T02:07:05;27.50;;;18.60;;
10957;SDS011;5531;42.570;23.676;2023-02-28T02:09:37;28.45;;;18.50;;
10957;SDS011;5531;42.570;23.676;2023-02-28T02:12:08;26.27;;;17.90;;
10957;SDS011;5531;42.570;23.676;2023-02-28T02:14:50;29.08;;;19.50;;
10957;SDS011;5531;42.570;23.676;2023-02-28T02:17:30;26.77;;;18.15;;
10957;SDS011;5531;42.570;23.676;2023-02-28T02:23:26;27.42;;;18.10;;
10957;SDS011;5531;42.570;23.676;2023-02-28T02:26:22;28.70;;;17.75;;
10957;SDS011;5531;42.570;23.676;2023-02-28T02:29:11;29.75;;;18.23;;
10957;SDS011;5531;42.570;23.676;2023-02-28T02:34:58;23.42;;;16.65;;
10957;SDS011;5531;42.570;23.676;2023-02-28T02:37:38;23.55;;;17.25;;
10957;SDS011;5531;42.570;23.676;2023-02-28T02:40:15;22.38;;;16.23;;
10957;SDS011;5531;42.570;23.676;2023-02-28T02:42:49;21.23;;;15.55;;
10957;SDS011;5531;42.570;23.676;2023-02-28T02:45:23;22.90;;;15.65;;
10957;SDS011;5531;42.570;23.676;2023-02-28T02:48:01;21.63;;;16.15;;
10957;SDS011;5531;42.570;23.676;2023-02-28T02:50:36;23.33;;;16.48;;
10957;SDS011;5531;42.570;23.676;2023-02-28T02:53:08;23.73;;;16.60;;
10957;SDS011;5531;42.570;23.676;2023-02-28T02:55:40;24.38;;;16.70;;
10957;SDS011;5531;42.570;23.676;2023-02-28T02:58:13;24.17;;;15.85;;
10957;SDS011;5531;42.570;23.676;2023-02-28T03:00:46;25.00;;;17.23;;
10957;SDS011;5531;42.570;23.676;2023-02-28T03:03:18;24.00;;;16.35;;
10957;SDS011;5531;42.570;23.676;2023-02-28T03:05:57;25.95;;;17.02;;
10957;SDS011;5531;42.570;23.676;2023-02-28T03:08:29;27.45;;;17.65;;
10957;SDS011;5531;42.570;23.676;2023-02-28T03:11:02;26.45;;;17.13;;
10957;SDS011;5531;42.570;23.676;2023-02-28T03:13:43;29.95;;;18.55;;
10957;SDS011;5531;42.570;23.676;2023-02-28T03:16:26;27.58;;;17.77;;
10957;SDS011;5531;42.570;23.676;2023-02-28T03:19:15;40.45;;;18.92;;
10957;SDS011;5531;42.570;23.676;2023-02-28T03:21:59;37.33;;;17.92;;
10957;SDS011;5531;42.570;23.676;2023-02-28T03:24:43;28.40;;;16.05;;
10957;SDS011;5531;42.570;23.676;2023-02-28T03:27:21;26.23;;;16.13;;
10957;SDS011;5531;42.570;23.676;2023-02-28T03:29:56;28.45;;;16.77;;
10957;SDS011;5531;42.570;23.676;2023-02-28T03:32:32;29.92;;;17.25;;
10957;SDS011;5531;42.570;23.676;2023-02-28T03:35:06;26.40;;;16.52;;
10957;SDS011;5531;42.570;23.676;2023-02-28T03:37:43;33.10;;;18.75;;
10957;SDS011;5531;42.570;23.676;2023-02-28T03:40:15;38.22;;;21.42;;
10957;SDS011;5531;42.570;23.676;2023-02-28T03:42:48;37.28;;;23.08;;
10957;SDS011;5531;42.570;23.676;2023-02-28T03:45:21;36.20;;;21.20;;
10957;SDS011;5531;42.570;23.676;2023-02-28T03:47:55;34.38;;;19.52;;
10957;SDS011;5531;42.570;23.676;2023-02-28T03:50:30;33.17;;;20.27;;
10957;SDS011;5531;42.570;23.676;2023-02-28T03:53:07;33.75;;;19.85;;
10957;SDS011;5531;42.570;23.676;2023-02-28T03:55:42;38.05;;;21.90;;
10957;SDS011;5531;42.570;23.676;2023-02-28T03:58:15;38.05;;;23.38;;
10957;SDS011;5531;42.570;23.676;2023-02-28T04:00:57;37.92;;;22.77;;
10957;SDS011;5531;42.570;23.676;2023-02-28T04:03:34;38.38;;;23.08;;
10957;SDS011;5531;42.570;23.676;2023-02-28T04:06:04;39.25;;;22.85;;
10957;SDS011;5531;42.570;23.676;2023-02-28T04:08:38;38.25;;;23.20;;
10957;SDS011;5531;42.570;23.676;2023-02-28T04:11:11;35.22;;;21.13;;
10957;SDS011;5531;42.570;23.676;2023-02-28T04:13:47;35.83;;;21.48;;
10957;SDS011;5531;42.570;23.676;2023-02-28T04:16:16;36.08;;;21.33;;
10957;SDS011;5531;42.570;23.676;2023-02-28T04:18:46;36.40;;;21.77;;
10957;SDS011;5531;42.570;23.676;2023-02-28T04:21:15;35.47;;;23.13;;
10957;SDS011;5531;42.570;23.676;2023-02-28T04:23:48;33.50;;;22.50;;
10957;SDS011;5531;42.570;23.676;2023-02-28T04:26:17;36.90;;;23.25;;
10957;SDS011;5531;42.570;23.676;2023-02-28T04:28:46;35.90;;;24.13;;
10957;SDS011;5531;42.570;23.676;2023-02-28T04:31:15;36.03;;;25.60;;
10957;SDS011;5531;42.570;23.676;2023-02-28T04:33:44;37.17;;;26.55;;
10957;SDS011;5531;42.570;23.676;2023-02-28T04:36:13;37.90;;;28.60;;
10957;SDS011;5531;42.570;23.676;2023-02-28T04:38:43;41.08;;;28.30;;
10957;SDS011;5531;42.570;23.676;2023-02-28T04:41:15;38.78;;;29.08;;
10957;SDS011;5531;42.570;23.676;2023-02-28T04:43:45;39.28;;;28.52;;
10957;SDS011;5531;42.570;23.676;2023-02-28T04:46:14;36.35;;;26.25;;
10957;SDS011;5531;42.570;23.676;2023-02-28T04:48:43;36.40;;;25.52;;
10957;SDS011;5531;42.570;23.676;2023-02-28T04:51:13;34.78;;;24.00;;
10957;SDS011;5531;42.570;23.676;2023-02-28T04:53:44;35.45;;;21.98;;
10957;SDS011;5531;42.570;23.676;2023-02-28T04:56:16;39.60;;;26.30;;
10957;SDS011;5531;42.570;23.676;2023-02-28T04:58:46;209.68;;;136.88;;
10957;SDS011;5531;42.570;23.676;2023-02-28T05:01:17;45.33;;;32.22;;
10957;SDS011;5531;42.570;23.676;2023-02-28T05:03:51;37.55;;;26.45;;
10957;SDS011;5531;42.570;23.676;2023-02-28T05:06:21;36.72;;;26.15;;
10957;SDS011;5531;42.570;23.676;2023-02-28T05:08:52;37.35;;;26.85;;
10957;SDS011;5531;42.570;23.676;2023-02-28T05:11:24;38.78;;;27.30;;
10957;SDS011;5531;42.570;23.676;2023-02-28T05:13:59;39.58;;;24.67;;
10957;SDS011;5531;42.570;23.676;2023-02-28T05:16:28;38.58;;;26.17;;
10957;SDS011;5531;42.570;23.676;2023-02-28T05:18:57;44.47;;;26.00;;
10957;SDS011;5531;42.570;23.676;2023-02-28T05:21:27;41.95;;;26.05;;
10957;SDS011;5531;42.570;23.676;2023-02-28T05:23:59;45.80;;;27.67;;
10957;SDS011;5531;42.570;23.676;2023-02-28T05:26:34;43.88;;;26.25;;
10957;SDS011;5531;42.570;23.676;2023-02-28T05:29:04;49.90;;;33.43;;
10957;SDS011;5531;42.570;23.676;2023-02-28T05:31:34;45.95;;;27.20;;
10957;SDS011;5531;42.570;23.676;2023-02-28T05:34:03;48.88;;;28.27;;
10957;SDS011;5531;42.570;23.676;2023-02-28T05:36:32;49.35;;;27.88;;
10957;SDS011;5531;42.570;23.676;2023-02-28T05:39:01;52.72;;;28.17;;
10957;SDS011;5531;42.570;23.676;2023-02-28T05:41:33;54.08;;;30.70;;
10957;SDS011;5531;42.570;23.676;2023-02-28T05:44:02;50.60;;;28.15;;
10957;SDS011;5531;42.570;23.676;2023-02-28T05:46:31;49.38;;;29.50;;
10957;SDS011;5531;42.570;23.676;2023-02-28T05:49:00;55.13;;;27.80;;
10957;SDS011;5531;42.570;23.676;2023-02-28T05:51:30;65.20;;;42.72;;
10957;SDS011;5531;42.570;23.676;2023-02-28T05:53:59;50.92;;;28.38;;
10957;SDS011;5531;42.570;23.676;2023-02-28T05:56:29;53.95;;;32.47;;
10957;SDS011;5531;42.570;23.676;2023-02-28T05:59:02;50.28;;;27.48;;
10957;SDS011;5531;42.570;23.676;2023-02-28T06:01:32;66.40;;;37.60;;
10957;SDS011;5531;42.570;23.676;2023-02-28T06:04:03;56.15;;;29.50;;
10957;SDS011;5531;42.570;23.676;2023-02-28T06:06:33;66.18;;;36.15;;
10957;SDS011;5531;42.570;23.676;2023-02-28T06:09:03;61.33;;;26.52;;
10957;SDS011;5531;42.570;23.676;2023-02-28T06:11:32;63.33;;;32.58;;
10957;SDS011;5531;42.570;23.676;2023-02-28T06:14:04;55.47;;;28.02;;
10957;SDS011;5531;42.570;23.676;2023-02-28T06:16:34;58.28;;;28.38;;
10957;SDS011;5531;42.570;23.676;2023-02-28T06:19:04;56.20;;;25.77;;
10957;SDS011;5531;42.570;23.676;2023-02-28T06:21:33;65.50;;;28.77;;
10957;SDS011;5531;42.570;23.676;2023-02-28T06:24:02;46.35;;;25.63;;
10957;SDS011;5531;42.570;23.676;2023-02-28T06:26:32;95.13;;;61.38;;
10957;SDS011;5531;42.570;23.676;2023-02-28T06:29:04;57.72;;;28.98;;
10957;SDS011;5531;42.570;23.676;2023-02-28T06:31:33;72.13;;;32.05;;
10957;SDS011;5531;42.570;23.676;2023-02-28T06:34:02;56.35;;;28.75;;
10957;SDS011;5531;42.570;23.676;2023-02-28T06:36:31;64.10;;;28.55;;
10957;SDS011;5531;42.570;23.676;2023-02-28T06:39:00;67.05;;;33.63;;
10957;SDS011;5531;42.570;23.676;2023-02-28T06:41:29;61.25;;;29.08;;
10957;SDS011;5531;42.570;23.676;2023-02-28T06:44:05;83.35;;;29.80;;
10957;SDS011;5531;42.570;23.676;2023-02-28T06:46:40;122.97;;;31.65;;
10957;SDS011;5531;42.570;23.676;2023-02-28T06:49:09;55.83;;;27.65;;
10957;SDS011;5531;42.570;23.676;2023-02-28T06:51:40;99.78;;;28.23;;
10957;SDS011;5531;42.570;23.676;2023-02-28T06:54:10;94.25;;;39.35;;
10957;SDS011;5531;42.570;23.676;2023-02-28T06:56:40;87.55;;;41.55;;
10957;SDS011;5531;42.570;23.676;2023-02-28T06:59:12;101.57;;;27.85;;
10957;SDS011;5531;42.570;23.676;2023-02-28T07:01:41;122.45;;;31.15;;
10957;SDS011;5531;42.570;23.676;2023-02-28T07:04:10;124.30;;;27.05;;
10957;SDS011;5531;42.570;23.676;2023-02-28T07:06:39;180.70;;;28.67;;
10957;SDS011;5531;42.570;23.676;2023-02-28T07:09:08;117.80;;;28.52;;
10957;SDS011;5531;42.570;23.676;2023-02-28T07:11:39;208.30;;;32.03;;
10957;SDS011;5531;42.570;23.676;2023-02-28T07:14:09;109.75;;;29.48;;
10957;SDS011;5531;42.570;23.676;2023-02-28T07:16:40;314.60;;;36.65;;
10957;SDS011;5531;42.570;23.676;2023-02-28T07:19:10;280.75;;;35.03;;
10957;SDS011;5531;42.570;23.676;2023-02-28T07:21:39;231.93;;;35.33;;
10957;SDS011;5531;42.570;23.676;2023-02-28T07:24:08;148.13;;;30.83;;
10957;SDS011;5531;42.570;23.676;2023-02-28T07:26:41;281.58;;;35.53;;
10957;SDS011;5531;42.570;23.676;2023-02-28T07:29:12;265.70;;;35.00;;
10957;SDS011;5531;42.570;23.676;2023-02-28T07:31:41;175.98;;;29.77;;
10957;SDS011;5531;42.570;23.676;2023-02-28T07:34:11;205.40;;;38.90;;
10957;SDS011;5531;42.570;23.676;2023-02-28T07:36:41;158.88;;;29.67;;
10957;SDS011;5531;42.570;23.676;2023-02-28T07:39:10;233.68;;;33.50;;
10957;SDS011;5531;42.570;23.676;2023-02-28T07:41:39;180.02;;;33.38;;
10957;SDS011;5531;42.570;23.676;2023-02-28T07:44:09;338.70;;;33.55;;
10957;SDS011;5531;42.570;23.676;2023-02-28T07:46:50;336.88;;;34.97;;
10957;SDS011;5531;42.570;23.676;2023-02-28T07:49:27;256.08;;;32.20;;
10957;SDS011;5531;42.570;23.676;2023-02-28T07:51:57;350.73;;;36.45;;
10957;SDS011;5531;42.570;23.676;2023-02-28T07:54:26;180.35;;;28.75;;
10957;SDS011;5531;42.570;23.676;2023-02-28T07:56:55;265.58;;;33.53;;
10957;SDS011;5531;42.570;23.676;2023-02-28T07:59:27;219.13;;;28.90;;
10957;SDS011;5531;42.570;23.676;2023-02-28T08:01:56;178.02;;;28.00;;
10957;SDS011;5531;42.570;23.676;2023-02-28T08:04:26;148.57;;;26.95;;
10957;SDS011;5531;42.570;23.676;2023-02-28T08:06:55;85.78;;;24.50;;
10957;SDS011;5531;42.570;23.676;2023-02-28T08:09:24;76.38;;;24.05;;
10957;SDS011;5531;42.570;23.676;2023-02-28T08:11:53;92.80;;;24.83;;
10957;SDS011;5531;42.570;23.676;2023-02-28T08:14:22;63.42;;;25.77;;
10957;SDS011;5531;42.570;23.676;2023-02-28T08:16:53;81.13;;;25.92;;
10957;SDS011;5531;42.570;23.676;2023-02-28T08:19:22;109.63;;;29.33;;
10957;SDS011;5531;42.570;23.676;2023-02-28T08:21:51;120.55;;;28.05;;
10957;SDS011;5531;42.570;23.676;2023-02-28T08:24:20;97.28;;;27.13;;
10957;SDS011;5531;42.570;23.676;2023-02-28T08:26:50;72.97;;;27.40;;
10957;SDS011;5531;42.570;23.676;2023-02-28T08:29:19;70.00;;;25.52;;
10957;SDS011;5531;42.570;23.676;2023-02-28T08:31:48;61.95;;;24.98;;
10957;SDS011;5531;42.570;23.676;2023-02-28T08:34:19;54.47;;;24.20;;
10957;SDS011;5531;42.570;23.676;2023-02-28T08:36:48;54.42;;;24.52;;
10957;SDS011;5531;42.570;23.676;2023-02-28T08:39:18;47.17;;;21.85;;
10957;SDS011;5531;42.570;23.676;2023-02-28T08:41:47;48.47;;;21.20;;
10957;SDS011;5531;42.570;23.676;2023-02-28T08:44:16;41.63;;;20.40;;
10957;SDS011;5531;42.570;23.676;2023-02-28T08:46:45;45.25;;;20.45;;
10957;SDS011;5531;42.570;23.676;2023-02-28T08:49:14;45.47;;;19.98;;
10957;SDS011;5531;42.570;23.676;2023-02-28T08:51:46;37.85;;;20.58;;
10957;SDS011;5531;42.570;23.676;2023-02-28T08:54:15;39.08;;;20.95;;
10957;SDS011;5531;42.570;23.676;2023-02-28T08:56:45;37.22;;;20.08;;
10957;SDS011;5531;42.570;23.676;2023-02-28T08:59:14;40.60;;;22.08;;
10957;SDS011;5531;42.570;23.676;2023-02-28T09:01:44;42.63;;;21.65;;
10957;SDS011;5531;42.570;23.676;2023-02-28T09:04:13;38.90;;;21.10;;
10957;SDS011;5531;42.570;23.676;2023-02-28T09:06:42;36.63;;;22.05;;
10957;SDS011;5531;42.570;23.676;2023-02-28T09:09:16;39.30;;;23.33;;
10957;SDS011;5531;42.570;23.676;2023-02-28T09:11:45;38.65;;;24.10;;
10957;SDS011;5531;42.570;23.676;2023-02-28T09:14:14;43.63;;;24.15;;
10957;SDS011;5531;42.570;23.676;2023-02-28T09:16:43;42.00;;;22.20;;
10957;SDS011;5531;42.570;23.676;2023-02-28T09:19:12;38.35;;;20.20;;
10957;SDS011;5531;42.570;23.676;2023-02-28T09:21:41;39.58;;;20.05;;
10957;SDS011;5531;42.570;23.676;2023-02-28T09:24:10;56.63;;;32.55;;
10957;SDS011;5531;42.570;23.676;2023-02-28T09:26:43;44.35;;;21.05;;
10957;SDS011;5531;42.570;23.676;2023-02-28T09:29:12;46.80;;;25.95;;
10957;SDS011;5531;42.570;23.676;2023-02-28T09:31:42;45.38;;;22.02;;
10957;SDS011;5531;42.570;23.676;2023-02-28T09:34:11;42.70;;;23.15;;
10957;SDS011;5531;42.570;23.676;2023-02-28T09:36:41;40.50;;;21.45;;
10957;SDS011;5531;42.570;23.676;2023-02-28T09:39:10;39.38;;;24.40;;
10957;SDS011;5531;42.570;23.676;2023-02-28T09:41:47;40.95;;;21.10;;
10957;SDS011;5531;42.570;23.676;2023-02-28T09:44:20;41.45;;;21.55;;
10957;SDS011;5531;42.570;23.676;2023-02-28T09:46:55;44.55;;;20.85;;
10957;SDS011;5531;42.570;23.676;2023-02-28T09:49:30;38.85;;;21.88;;
10957;SDS011;5531;42.570;23.676;2023-02-28T09:52:05;39.97;;;22.77;;
10957;SDS011;5531;42.570;23.676;2023-02-28T09:54:38;46.63;;;31.15;;
10957;SDS011;5531;42.570;23.676;2023-02-28T09:57:13;41.10;;;24.60;;
10957;SDS011;5531;42.570;23.676;2023-02-28T09:59:50;38.90;;;21.75;;
10957;SDS011;5531;42.570;23.676;2023-02-28T10:05:35;42.97;;;21.90;;
10957;SDS011;5531;42.570;23.676;2023-02-28T10:08:11;50.22;;;24.83;;
10957;SDS011;5531;42.570;23.676;2023-02-28T10:10:44;42.65;;;23.15;;
10957;SDS011;5531;42.570;23.676;2023-02-28T10:13:20;43.65;;;22.50;;
10957;SDS011;5531;42.570;23.676;2023-02-28T10:15:54;79.32;;;22.35;;
10957;SDS011;5531;42.570;23.676;2023-02-28T10:18:27;62.30;;;22.67;;
10957;SDS011;5531;42.570;23.676;2023-02-28T10:20:59;53.42;;;24.30;;
10957;SDS011;5531;42.570;23.676;2023-02-28T10:23:31;54.20;;;23.38;;
10957;SDS011;5531;42.570;23.676;2023-02-28T10:26:08;80.32;;;24.35;;
10957;SDS011;5531;42.570;23.676;2023-02-28T10:28:44;91.32;;;26.15;;
10957;SDS011;5531;42.570;23.676;2023-02-28T10:31:14;78.00;;;25.15;;
10957;SDS011;5531;42.570;23.676;2023-02-28T10:33:46;98.15;;;25.77;;
10957;SDS011;5531;42.570;23.676;2023-02-28T10:36:18;73.03;;;24.40;;
10957;SDS011;5531;42.570;23.676;2023-02-28T10:38:48;86.57;;;26.02;;
10957;SDS011;5531;42.570;23.676;2023-02-28T10:41:27;108.97;;;26.38;;
10957;SDS011;5531;42.570;23.676;2023-02-28T10:44:14;63.28;;;23.75;;
10957;SDS011;5531;42.570;23.676;2023-02-28T10:46:48;59.53;;;25.60;;
10957;SDS011;5531;42.570;23.676;2023-02-28T10:49:20;58.55;;;25.08;;
10957;SDS011;5531;42.570;23.676;2023-02-28T10:51:51;79.60;;;26.17;;
10957;SDS011;5531;42.570;23.676;2023-02-28T10:54:23;55.15;;;23.20;;
10957;SDS011;5531;42.570;23.676;2023-02-28T10:59:47;60.67;;;23.17;;
10957;SDS011;5531;42.570;23.676;2023-02-28T11:02:30;69.60;;;23.70;;
10957;SDS011;5531;42.570;23.676;2023-02-28T11:05:02;61.72;;;22.75;;
10957;SDS011;5531;42.570;23.676;2023-02-28T11:07:31;63.10;;;23.70;;
10957;SDS011;5531;42.570;23.676;2023-02-28T11:10:00;78.18;;;23.02;;
10957;SDS011;5531;42.570;23.676;2023-02-28T11:12:36;97.50;;;24.27;;
10957;SDS011;5531;42.570;23.676;2023-02-28T11:15:18;77.78;;;24.88;;
10957;SDS011;5531;42.570;23.676;2023-02-28T11:17:55;55.92;;;25.17;;
10957;SDS011;5531;42.570;23.676;2023-02-28T11:20:28;62.35;;;23.02;;
10957;SDS011;5531;42.570;23.676;2023-02-28T11:22:58;48.90;;;22.75;;
10957;SDS011;5531;42.570;23.676;2023-02-28T11:25:30;86.90;;;25.83;;
10957;SDS011;5531;42.570;23.676;2023-02-28T11:28:02;75.93;;;23.73;;
10957;SDS011;5531;42.570;23.676;2023-02-28T11:30:36;66.78;;;24.25;;
10957;SDS011;5531;42.570;23.676;2023-02-28T11:33:19;54.00;;;23.67;;
10957;SDS011;5531;42.570;23.676;2023-02-28T11:35:51;89.60;;;24.58;;
10957;SDS011;5531;42.570;23.676;2023-02-28T11:38:26;45.13;;;24.88;;
10957;SDS011;5531;42.570;23.676;2023-02-28T11:41:03;54.33;;;23.60;;
10957;SDS011;5531;42.570;23.676;2023-02-28T11:43:42;73.10;;;24.10;;
10957;SDS011;5531;42.570;23.676;2023-02-28T11:46:29;60.15;;;23.95;;
10957;SDS011;5531;42.570;23.676;2023-02-28T11:49:05;81.47;;;24.08;;
10957;SDS011;5531;42.570;23.676;2023-02-28T11:51:50;77.60;;;23.30;;
10957;SDS011;5531;42.570;23.676;2023-02-28T11:54:28;47.70;;;21.92;;
10957;SDS011;5531;42.570;23.676;2023-02-28T11:57:15;94.63;;;22.55;;
10957;SDS011;5531;42.570;23.676;2023-02-28T11:59:57;45.10;;;20.92;;
10957;SDS011;5531;42.570;23.676;2023-02-28T12:02:41;48.08;;;21.05;;
10957;SDS011;5531;42.570;23.676;2023-02-28T12:05:26;43.15;;;21.08;;
10957;SDS011;5531;42.570;23.676;2023-02-28T12:08:07;40.80;;;22.40;;
10957;SDS011;5531;42.570;23.676;2023-02-28T12:10:52;48.65;;;21.42;;
10957;SDS011;5531;42.570;23.676;2023-02-28T12:13:34;55.42;;;26.27;;
10957;SDS011;5531;42.570;23.676;2023-02-28T12:16:24;43.38;;;21.17;;
10957;SDS011;5531;42.570;23.676;2023-02-28T12:19:16;54.35;;;22.20;;
10957;SDS011;5531;42.570;23.676;2023-02-28T12:24:53;68.10;;;36.25;;
10957;SDS011;5531;42.570;23.676;2023-02-28T12:27:48;58.72;;;26.05;;
10957;SDS011;5531;42.570;23.676;2023-02-28T12:30:19;59.78;;;23.63;;
10957;SDS011;5531;42.570;23.676;2023-02-28T12:32:53;48.05;;;22.33;;
10957;SDS011;5531;42.570;23.676;2023-02-28T12:35:28;44.95;;;22.63;;
10957;SDS011;5531;42.570;23.676;2023-02-28T12:38:04;42.72;;;22.73;;
10957;SDS011;5531;42.570;23.676;2023-02-28T12:40:42;51.70;;;22.05;;
10957;SDS011;5531;42.570;23.676;2023-02-28T12:43:15;41.08;;;21.15;;
10957;SDS011;5531;42.570;23.676;2023-02-28T12:45:48;48.10;;;22.30;;
10957;SDS011;5531;42.570;23.676;2023-02-28T12:48:21;44.72;;;24.23;;
10957;SDS011;5531;42.570;23.676;2023-02-28T12:50:58;44.70;;;25.00;;
10957;SDS011;5531;42.570;23.676;2023-02-28T12:53:30;38.78;;;21.98;;
10957;SDS011;5531;42.570;23.676;2023-02-28T12:56:09;44.25;;;24.92;;
10957;SDS011;5531;42.570;23.676;2023-02-28T12:58:45;53.03;;;23.33;;
10957;SDS011;5531;42.570;23.676;2023-02-28T13:07:23;41.30;;;22.50;;
10957;SDS011;5531;42.570;23.676;2023-02-28T13:10:21;50.53;;;23.85;;
10957;SDS011;5531;42.570;23.676;2023-02-28T13:12:52;42.80;;;22.42;;
10957;SDS011;5531;42.570;23.676;2023-02-28T13:15:24;52.28;;;22.33;;
10957;SDS011;5531;42.570;23.676;2023-02-28T13:17:55;41.00;;;22.70;;
10957;SDS011;5531;42.570;23.676;2023-02-28T13:20:29;46.72;;;21.45;;
10957;SDS011;5531;42.570;23.676;2023-02-28T13:23:05;37.40;;;19.25;;
10957;SDS011;5531;42.570;23.676;2023-02-28T13:26:10;36.55;;;19.85;;
10957;SDS011;5531;42.570;23.676;2023-02-28T13:38:16;42.60;;;20.40;;
10957;SDS011;5531;42.570;23.676;2023-02-28T13:40:50;46.25;;;21.80;;
10957;SDS011;5531;42.570;23.676;2023-02-28T13:43:19;42.72;;;21.88;;
10957;SDS011;5531;42.570;23.676;2023-02-28T13:48:38;72.97;;;21.42;;
10957;SDS011;5531;42.570;23.676;2023-02-28T13:54:11;83.22;;;22.02;;
10957;SDS011;5531;42.570;23.676;2023-02-28T13:56:56;52.05;;;21.60;;
10957;SDS011;5531;42.570;23.676;2023-02-28T13:59:34;89.32;;;23.30;;
10957;SDS011;5531;42.570;23.676;2023-02-28T14:02:28;56.00;;;20.88;;
10957;SDS011;5531;42.570;23.676;2023-02-28T14:05:17;54.45;;;20.15;;
10957;SDS011;5531;42.570;23.676;2023-02-28T14:07:52;76.35;;;22.08;;
10957;SDS011;5531;42.570;23.676;2023-02-28T14:10:27;73.90;;;22.27;;
10957;SDS011;5531;42.570;23.676;2023-02-28T14:13:03;45.90;;;21.85;;
10957;SDS011;5531;42.570;23.676;2023-02-28T14:15:40;64.30;;;20.70;;
10957;SDS011;5531;42.570;23.676;2023-02-28T14:18:18;67.78;;;19.70;;
10957;SDS011;5531;42.570;23.676;2023-02-28T14:20:53;71.50;;;21.20;;
10957;SDS011;5531;42.570;23.676;2023-02-28T14:23:34;76.75;;;21.48;;
10957;SDS011;5531;42.570;23.676;2023-02-28T14:26:18;88.32;;;22.20;;
10957;SDS011;5531;42.570;23.676;2023-02-28T14:29:06;72.68;;;21.33;;
10957;SDS011;5531;42.570;23.676;2023-02-28T14:31:48;84.65;;;18.40;;
10957;SDS011;5531;42.570;23.676;2023-02-28T14:34:26;114.78;;;18.13;;
10957;SDS011;5531;42.570;23.676;2023-02-28T14:37:05;105.45;;;17.88;;
10957;SDS011;5531;42.570;23.676;2023-02-28T14:39:41;46.33;;;15.88;;
10957;SDS011;5531;42.570;23.676;2023-02-28T14:44:59;39.22;;;14.20;;
10957;SDS011;5531;42.570;23.676;2023-02-28T14:47:30;29.58;;;14.57;;
10957;SDS011;5531;42.570;23.676;2023-02-28T14:50:00;23.52;;;12.90;;
10957;SDS011;5531;42.570;23.676;2023-02-28T14:52:34;22.50;;;13.52;;
10957;SDS011;5531;42.570;23.676;2023-02-28T14:55:04;23.45;;;12.80;;
10957;SDS011;5531;42.570;23.676;2023-02-28T14:57:43;21.70;;;13.20;;
10957;SDS011;5531;42.570;23.676;2023-02-28T15:00:22;20.77;;;13.35;;
10957;SDS011;5531;42.570;23.676;2023-02-28T15:02:53;18.85;;;12.52;;
10957;SDS011;5531;42.570;23.676;2023-02-28T15:05:24;20.33;;;11.90;;
10957;SDS011;5531;42.570;23.676;2023-02-28T15:08:02;19.55;;;12.43;;
10957;SDS011;5531;42.570;23.676;2023-02-28T15:10:33;21.00;;;13.13;;
10957;SDS011;5531;42.570;23.676;2023-02-28T15:13:06;20.80;;;13.43;;
10957;SDS011;5531;42.570;23.676;2023-02-28T15:15:40;20.60;;;13.27;;
10957;SDS011;5531;42.570;23.676;2023-02-28T15:18:15;20.48;;;13.73;;
10957;SDS011;5531;42.570;23.676;2023-02-28T15:20:50;19.27;;;12.63;;
10957;SDS011;5531;42.570;23.676;2023-02-28T15:23:20;17.23;;;12.60;;
10957;SDS011;5531;42.570;23.676;2023-02-28T15:25:50;19.30;;;11.85;;
10957;SDS011;5531;42.570;23.676;2023-02-28T15:28:23;18.38;;;11.27;;
10957;SDS011;5531;42.570;23.676;2023-02-28T15:30:54;17.80;;;11.68;;
10957;SDS011;5531;42.570;23.676;2023-02-28T15:33:26;16.95;;;12.20;;
10957;SDS011;5531;42.570;23.676;2023-02-28T15:36:06;15.98;;;11.57;;